sensor_id;sensor_type;location;lat;lon;timestamp;temperature;humidity
22006;DHT22;11167;46.988;15.470;2024-01-30T00:01:11;4.10;71.70
22006;DHT22;11167;46.988;15.470;2024-01-30T00:03:12;4.00;71.60
22006;DHT22;11167;46.988;15.470;2024-01-30T00:05:14;4.00;71.70
22006;DHT22;11167;46.988;15.470;2024-01-30T00:07:15;4.00;71.70
22006;DHT22;11167;46.988;15.470;2024-01-30T00:09:16;4.00;72.50
22006;DHT22;11167;46.988;15.470;2024-01-30T00:11:17;4.00;71.70
22006;DHT22;11167;46.988;15.470;2024-01-30T00:13:19;4.00;71.70
22006;DHT22;11167;46.988;15.470;2024-01-30T00:15:20;3.90;71.60
22006;DHT22;11167;46.988;15.470;2024-01-30T00:17:21;3.90;72.50
22006;DHT22;11167;46.988;15.470;2024-01-30T00:19:23;3.90;71.70
22006;DHT22;11167;46.988;15.470;2024-01-30T00:21:24;3.90;71.70
22006;DHT22;11167;46.988;15.470;2024-01-30T00:23:25;3.90;71.70
22006;DHT22;11167;46.988;15.470;2024-01-30T00:25:27;3.90;71.70
22006;DHT22;11167;46.988;15.470;2024-01-30T00:27:28;3.90;71.80
22006;DHT22;11167;46.988;15.470;2024-01-30T00:29:29;3.80;71.70
22006;DHT22;11167;46.988;15.470;2024-01-30T00:31:32;3.80;71.70
22006;DHT22;11167;46.988;15.470;2024-01-30T00:33:33;3.80;71.70
22006;DHT22;11167;46.988;15.470;2024-01-30T00:35:34;3.80;71.70
22006;DHT22;11167;46.988;15.470;2024-01-30T00:37:35;3.80;71.80
22006;DHT22;11167;46.988;15.470;2024-01-30T00:39:37;3.80;71.80
22006;DHT22;11167;46.988;15.470;2024-01-30T00:41:38;3.70;71.80
22006;DHT22;11167;46.988;15.470;2024-01-30T00:43:39;3.70;71.70
22006;DHT22;11167;46.988;15.470;2024-01-30T00:45:40;3.70;71.80
22006;DHT22;11167;46.988;15.470;2024-01-30T00:47:41;3.70;71.90
22006;DHT22;11167;46.988;15.470;2024-01-30T00:49:43;3.70;71.90
22006;DHT22;11167;46.988;15.470;2024-01-30T00:51:44;3.70;71.80
22006;DHT22;11167;46.988;15.470;2024-01-30T00:53:45;3.70;71.90
22006;DHT22;11167;46.988;15.470;2024-01-30T00:55:46;3.60;71.80
22006;DHT22;11167;46.988;15.470;2024-01-30T00:57:49;3.60;71.90
22006;DHT22;11167;46.988;15.470;2024-01-30T00:59:50;3.60;71.80
22006;DHT22;11167;46.988;15.470;2024-01-30T01:01:51;3.60;71.90
22006;DHT22;11167;46.988;15.470;2024-01-30T01:03:52;3.60;71.90
22006;DHT22;11167;46.988;15.470;2024-01-30T01:05:53;3.60;71.90
22006;DHT22;11167;46.988;15.470;2024-01-30T01:07:54;3.50;71.90
22006;DHT22;11167;46.988;15.470;2024-01-30T01:09:56;3.50;71.90
22006;DHT22;11167;46.988;15.470;2024-01-30T01:11:57;3.50;71.90
22006;DHT22;11167;46.988;15.470;2024-01-30T01:13:58;3.50;71.80
22006;DHT22;11167;46.988;15.470;2024-01-30T01:15:59;3.50;72.00
22006;DHT22;11167;46.988;15.470;2024-01-30T01:18:00;3.50;72.00
22006;DHT22;11167;46.988;15.470;2024-01-30T01:20:03;3.40;72.00
22006;DHT22;11167;46.988;15.470;2024-01-30T01:22:05;3.40;72.00
22006;DHT22;11167;46.988;15.470;2024-01-30T01:24:07;3.40;71.80
22006;DHT22;11167;46.988;15.470;2024-01-30T01:26:08;3.40;71.90
22006;DHT22;11167;46.988;15.470;2024-01-30T01:28:10;3.40;72.10
22006;DHT22;11167;46.988;15.470;2024-01-30T01:30:12;3.40;72.00
22006;DHT22;11167;46.988;15.470;2024-01-30T01:32:15;3.30;72.00
22006;DHT22;11167;46.988;15.470;2024-01-30T01:34:16;3.30;72.00
22006;DHT22;11167;46.988;15.470;2024-01-30T01:36:17;3.30;72.10
22006;DHT22;11167;46.988;15.470;2024-01-30T01:38:18;3.30;72.00
22006;DHT22;11167;46.988;15.470;2024-01-30T01:40:21;3.30;72.10
22006;DHT22;11167;46.988;15.470;2024-01-30T01:42:23;3.30;72.20
22006;DHT22;11167;46.988;15.470;2024-01-30T01:44:24;3.30;72.00
22006;DHT22;11167;46.988;15.470;2024-01-30T01:46:30;3.20;72.10
22006;DHT22;11167;46.988;15.470;2024-01-30T01:48:33;3.20;72.20
22006;DHT22;11167;46.988;15.470;2024-01-30T01:50:35;3.20;72.00
22006;DHT22;11167;46.988;15.470;2024-01-30T01:52:37;3.20;72.20
22006;DHT22;11167;46.988;15.470;2024-01-30T01:54:39;3.20;72.10
22006;DHT22;11167;46.988;15.470;2024-01-30T01:56:42;3.20;72.10
22006;DHT22;11167;46.988;15.470;2024-01-30T01:58:46;3.20;72.20
22006;DHT22;11167;46.988;15.470;2024-01-30T02:00:49;3.10;72.10
22006;DHT22;11167;46.988;15.470;2024-01-30T02:02:52;3.20;72.20
22006;DHT22;11167;46.988;15.470;2024-01-30T02:04:55;3.10;72.20
22006;DHT22;11167;46.988;15.470;2024-01-30T02:06:56;3.10;72.20
22006;DHT22;11167;46.988;15.470;2024-01-30T02:08:57;3.10;72.20
22006;DHT22;11167;46.988;15.470;2024-01-30T02:10:59;3.10;72.30
22006;DHT22;11167;46.988;15.470;2024-01-30T02:13:00;3.00;72.30
22006;DHT22;11167;46.988;15.470;2024-01-30T02:15:02;3.00;72.20
22006;DHT22;11167;46.988;15.470;2024-01-30T02:17:03;3.00;72.30
22006;DHT22;11167;46.988;15.470;2024-01-30T02:19:04;3.00;72.20
22006;DHT22;11167;46.988;15.470;2024-01-30T02:21:06;3.00;72.20
22006;DHT22;11167;46.988;15.470;2024-01-30T02:23:07;3.00;72.40
22006;DHT22;11167;46.988;15.470;2024-01-30T02:25:10;3.00;72.40
22006;DHT22;11167;46.988;15.470;2024-01-30T02:27:12;3.00;72.30
22006;DHT22;11167;46.988;15.470;2024-01-30T02:29:13;2.90;72.40
22006;DHT22;11167;46.988;15.470;2024-01-30T02:31:14;2.90;72.40
22006;DHT22;11167;46.988;15.470;2024-01-30T02:33:15;2.90;72.40
22006;DHT22;11167;46.988;15.470;2024-01-30T02:35:16;2.90;72.40
22006;DHT22;11167;46.988;15.470;2024-01-30T02:37:17;2.90;72.40
22006;DHT22;11167;46.988;15.470;2024-01-30T02:39:19;2.90;72.40
22006;DHT22;11167;46.988;15.470;2024-01-30T02:41:20;2.90;72.50
22006;DHT22;11167;46.988;15.470;2024-01-30T02:43:22;2.90;72.40
22006;DHT22;11167;46.988;15.470;2024-01-30T02:45:23;2.80;72.30
22006;DHT22;11167;46.988;15.470;2024-01-30T02:47:24;2.80;72.40
22006;DHT22;11167;46.988;15.470;2024-01-30T02:49:25;2.80;72.40
22006;DHT22;11167;46.988;15.470;2024-01-30T02:51:27;2.80;72.40
22006;DHT22;11167;46.988;15.470;2024-01-30T02:53:28;2.80;72.50
22006;DHT22;11167;46.988;15.470;2024-01-30T02:55:29;2.80;72.50
22006;DHT22;11167;46.988;15.470;2024-01-30T02:57:30;2.80;72.40
22006;DHT22;11167;46.988;15.470;2024-01-30T02:59:31;2.80;72.70
22006;DHT22;11167;46.988;15.470;2024-01-30T03:01:42;2.80;72.50
22006;DHT22;11167;46.988;15.470;2024-01-30T03:03:43;2.70;72.40
22006;DHT22;11167;46.988;15.470;2024-01-30T03:05:44;2.70;72.40
22006;DHT22;11167;46.988;15.470;2024-01-30T03:07:45;2.70;72.50
22006;DHT22;11167;46.988;15.470;2024-01-30T03:09:47;2.70;72.60
22006;DHT22;11167;46.988;15.470;2024-01-30T03:11:49;2.70;72.60
22006;DHT22;11167;46.988;15.470;2024-01-30T03:13:50;2.70;72.60
22006;DHT22;11167;46.988;15.470;2024-01-30T03:15:51;2.70;72.60
22006;DHT22;11167;46.988;15.470;2024-01-30T03:17:53;2.60;72.60
22006;DHT22;11167;46.988;15.470;2024-01-30T03:19:54;2.60;72.70
22006;DHT22;11167;46.988;15.470;2024-01-30T03:21:56;2.60;72.50
22006;DHT22;11167;46.988;15.470;2024-01-30T03:23:57;2.60;72.60
22006;DHT22;11167;46.988;15.470;2024-01-30T03:25:58;2.60;72.70
22006;DHT22;11167;46.988;15.470;2024-01-30T03:27:59;2.60;72.70
22006;DHT22;11167;46.988;15.470;2024-01-30T03:30:00;2.60;72.70
22006;DHT22;11167;46.988;15.470;2024-01-30T03:32:02;2.60;72.70
22006;DHT22;11167;46.988;15.470;2024-01-30T03:34:04;2.60;72.70
22006;DHT22;11167;46.988;15.470;2024-01-30T03:36:06;2.50;72.60
22006;DHT22;11167;46.988;15.470;2024-01-30T03:38:07;2.50;72.70
22006;DHT22;11167;46.988;15.470;2024-01-30T03:40:09;2.50;72.60
22006;DHT22;11167;46.988;15.470;2024-01-30T03:42:11;2.50;72.80
22006;DHT22;11167;46.988;15.470;2024-01-30T03:44:12;2.50;72.70
22006;DHT22;11167;46.988;15.470;2024-01-30T03:46:13;2.50;72.70
22006;DHT22;11167;46.988;15.470;2024-01-30T03:48:14;2.50;72.70
22006;DHT22;11167;46.988;15.470;2024-01-30T03:50:15;2.50;72.80
22006;DHT22;11167;46.988;15.470;2024-01-30T03:52:17;2.40;72.70
22006;DHT22;11167;46.988;15.470;2024-01-30T03:54:18;2.40;72.70
22006;DHT22;11167;46.988;15.470;2024-01-30T03:56:19;2.40;72.70
22006;DHT22;11167;46.988;15.470;2024-01-30T03:58:20;2.40;72.70
22006;DHT22;11167;46.988;15.470;2024-01-30T04:00:21;2.40;72.70
22006;DHT22;11167;46.988;15.470;2024-01-30T04:02:23;2.40;72.70
22006;DHT22;11167;46.988;15.470;2024-01-30T04:04:24;2.40;72.70
22006;DHT22;11167;46.988;15.470;2024-01-30T04:06:26;2.40;72.80
22006;DHT22;11167;46.988;15.470;2024-01-30T04:08:27;2.30;72.70
22006;DHT22;11167;46.988;15.470;2024-01-30T04:10:28;2.30;72.70
22006;DHT22;11167;46.988;15.470;2024-01-30T04:12:29;2.40;72.90
22006;DHT22;11167;46.988;15.470;2024-01-30T04:14:31;2.30;72.90
22006;DHT22;11167;46.988;15.470;2024-01-30T04:16:32;2.30;72.80
22006;DHT22;11167;46.988;15.470;2024-01-30T04:18:33;2.30;72.90
22006;DHT22;11167;46.988;15.470;2024-01-30T04:20:34;2.30;72.90
22006;DHT22;11167;46.988;15.470;2024-01-30T04:22:35;2.30;72.90
22006;DHT22;11167;46.988;15.470;2024-01-30T04:24:38;2.30;72.90
22006;DHT22;11167;46.988;15.470;2024-01-30T04:26:39;2.20;72.90
22006;DHT22;11167;46.988;15.470;2024-01-30T04:28:46;2.20;72.90
22006;DHT22;11167;46.988;15.470;2024-01-30T04:30:47;2.20;72.90
22006;DHT22;11167;46.988;15.470;2024-01-30T04:32:48;2.20;72.90
22006;DHT22;11167;46.988;15.470;2024-01-30T04:34:49;2.20;72.90
22006;DHT22;11167;46.988;15.470;2024-01-30T04:36:51;2.20;72.90
22006;DHT22;11167;46.988;15.470;2024-01-30T04:38:52;2.20;73.00
22006;DHT22;11167;46.988;15.470;2024-01-30T04:40:53;2.20;72.90
22006;DHT22;11167;46.988;15.470;2024-01-30T04:42:54;2.20;72.90
22006;DHT22;11167;46.988;15.470;2024-01-30T04:44:55;2.20;73.00
22006;DHT22;11167;46.988;15.470;2024-01-30T04:46:56;2.10;72.90
22006;DHT22;11167;46.988;15.470;2024-01-30T04:48:59;2.10;73.00
22006;DHT22;11167;46.988;15.470;2024-01-30T04:51:00;2.10;72.90
22006;DHT22;11167;46.988;15.470;2024-01-30T04:53:04;2.10;72.90
22006;DHT22;11167;46.988;15.470;2024-01-30T04:55:06;2.10;72.90
22006;DHT22;11167;46.988;15.470;2024-01-30T04:57:07;2.10;73.10
22006;DHT22;11167;46.988;15.470;2024-01-30T04:59:11;2.10;73.00
22006;DHT22;11167;46.988;15.470;2024-01-30T05:01:16;2.10;73.10
22006;DHT22;11167;46.988;15.470;2024-01-30T05:03:19;2.00;73.10
22006;DHT22;11167;46.988;15.470;2024-01-30T05:05:20;2.00;73.00
22006;DHT22;11167;46.988;15.470;2024-01-30T05:07:22;2.00;73.00
22006;DHT22;11167;46.988;15.470;2024-01-30T05:09:23;2.00;73.10
22006;DHT22;11167;46.988;15.470;2024-01-30T05:11:24;2.00;73.20
22006;DHT22;11167;46.988;15.470;2024-01-30T05:13:26;2.00;73.20
22006;DHT22;11167;46.988;15.470;2024-01-30T05:15:27;2.00;73.20
22006;DHT22;11167;46.988;15.470;2024-01-30T05:17:28;2.00;73.10
22006;DHT22;11167;46.988;15.470;2024-01-30T05:19:29;2.00;73.10
22006;DHT22;11167;46.988;15.470;2024-01-30T05:21:30;2.00;73.30
22006;DHT22;11167;46.988;15.470;2024-01-30T05:23:32;1.90;73.10
22006;DHT22;11167;46.988;15.470;2024-01-30T05:25:33;1.90;73.20
22006;DHT22;11167;46.988;15.470;2024-01-30T05:27:35;1.90;73.30
22006;DHT22;11167;46.988;15.470;2024-01-30T05:29:36;1.90;73.20
22006;DHT22;11167;46.988;15.470;2024-01-30T05:31:38;1.90;73.30
22006;DHT22;11167;46.988;15.470;2024-01-30T05:33:39;1.90;74.00
22006;DHT22;11167;46.988;15.470;2024-01-30T05:35:40;1.90;73.30
22006;DHT22;11167;46.988;15.470;2024-01-30T05:37:42;1.90;73.20
22006;DHT22;11167;46.988;15.470;2024-01-30T05:39:43;1.90;73.20
22006;DHT22;11167;46.988;15.470;2024-01-30T05:41:44;1.90;73.30
22006;DHT22;11167;46.988;15.470;2024-01-30T05:43:45;1.90;73.30
22006;DHT22;11167;46.988;15.470;2024-01-30T05:45:46;1.80;73.30
22006;DHT22;11167;46.988;15.470;2024-01-30T05:47:48;1.80;73.30
22006;DHT22;11167;46.988;15.470;2024-01-30T05:49:49;1.80;73.30
22006;DHT22;11167;46.988;15.470;2024-01-30T05:51:50;1.80;73.10
22006;DHT22;11167;46.988;15.470;2024-01-30T05:53:51;1.80;73.20
22006;DHT22;11167;46.988;15.470;2024-01-30T05:55:53;1.80;73.30
22006;DHT22;11167;46.988;15.470;2024-01-30T05:57:54;1.80;73.30
22006;DHT22;11167;46.988;15.470;2024-01-30T05:59:55;1.80;73.30
22006;DHT22;11167;46.988;15.470;2024-01-30T06:01:56;1.80;73.40
22006;DHT22;11167;46.988;15.470;2024-01-30T06:03:57;1.80;73.40
22006;DHT22;11167;46.988;15.470;2024-01-30T06:05:59;1.70;73.30
22006;DHT22;11167;46.988;15.470;2024-01-30T06:08:01;1.70;73.30
22006;DHT22;11167;46.988;15.470;2024-01-30T06:10:03;1.80;73.40
22006;DHT22;11167;46.988;15.470;2024-01-30T06:12:05;1.70;73.30
22006;DHT22;11167;46.988;15.470;2024-01-30T06:14:07;1.70;73.30
22006;DHT22;11167;46.988;15.470;2024-01-30T06:16:11;1.70;73.30
22006;DHT22;11167;46.988;15.470;2024-01-30T06:18:12;1.70;73.30
22006;DHT22;11167;46.988;15.470;2024-01-30T06:20:14;1.70;73.50
22006;DHT22;11167;46.988;15.470;2024-01-30T06:22:16;1.70;73.50
22006;DHT22;11167;46.988;15.470;2024-01-30T06:24:17;1.70;73.50
22006;DHT22;11167;46.988;15.470;2024-01-30T06:26:18;1.70;74.30
22006;DHT22;11167;46.988;15.470;2024-01-30T06:28:20;1.60;73.40
22006;DHT22;11167;46.988;15.470;2024-01-30T06:30:21;1.60;73.50
22006;DHT22;11167;46.988;15.470;2024-01-30T06:32:22;1.60;73.50
22006;DHT22;11167;46.988;15.470;2024-01-30T06:34:23;1.60;73.50
22006;DHT22;11167;46.988;15.470;2024-01-30T06:36:25;1.60;73.50
22006;DHT22;11167;46.988;15.470;2024-01-30T06:38:26;1.60;73.60
22006;DHT22;11167;46.988;15.470;2024-01-30T06:40:27;1.60;73.50
22006;DHT22;11167;46.988;15.470;2024-01-30T06:42:28;1.60;73.60
22006;DHT22;11167;46.988;15.470;2024-01-30T06:44:29;1.60;73.70
22006;DHT22;11167;46.988;15.470;2024-01-30T06:46:31;1.60;73.60
22006;DHT22;11167;46.988;15.470;2024-01-30T06:48:32;1.60;74.70
22006;DHT22;11167;46.988;15.470;2024-01-30T06:50:33;1.50;73.50
22006;DHT22;11167;46.988;15.470;2024-01-30T06:52:34;1.50;73.50
22006;DHT22;11167;46.988;15.470;2024-01-30T06:54:36;1.50;73.60
22006;DHT22;11167;46.988;15.470;2024-01-30T06:56:38;1.50;73.50
22006;DHT22;11167;46.988;15.470;2024-01-30T06:58:39;1.50;73.70
22006;DHT22;11167;46.988;15.470;2024-01-30T07:00:41;1.50;73.60
22006;DHT22;11167;46.988;15.470;2024-01-30T07:02:42;1.50;73.70
22006;DHT22;11167;46.988;15.470;2024-01-30T07:04:43;1.50;73.70
22006;DHT22;11167;46.988;15.470;2024-01-30T07:06:45;1.50;73.70
22006;DHT22;11167;46.988;15.470;2024-01-30T07:08:46;1.50;73.70
22006;DHT22;11167;46.988;15.470;2024-01-30T07:10:47;1.50;73.70
22006;DHT22;11167;46.988;15.470;2024-01-30T07:12:48;1.50;73.70
22006;DHT22;11167;46.988;15.470;2024-01-30T07:14:50;1.50;73.70
22006;DHT22;11167;46.988;15.470;2024-01-30T07:16:51;1.50;73.80
22006;DHT22;11167;46.988;15.470;2024-01-30T07:18:52;1.40;73.70
22006;DHT22;11167;46.988;15.470;2024-01-30T07:20:53;1.50;73.70
22006;DHT22;11167;46.988;15.470;2024-01-30T07:22:55;1.40;73.70
22006;DHT22;11167;46.988;15.470;2024-01-30T07:24:56;1.40;73.70
22006;DHT22;11167;46.988;15.470;2024-01-30T07:26:57;1.40;73.60
22006;DHT22;11167;46.988;15.470;2024-01-30T07:28:59;1.40;73.80
22006;DHT22;11167;46.988;15.470;2024-01-30T07:31:01;1.40;74.50
22006;DHT22;11167;46.988;15.470;2024-01-30T07:33:02;1.40;73.70
22006;DHT22;11167;46.988;15.470;2024-01-30T07:35:04;1.40;73.80
22006;DHT22;11167;46.988;15.470;2024-01-30T07:37:05;1.40;73.90
22006;DHT22;11167;46.988;15.470;2024-01-30T07:39:08;1.40;73.70
22006;DHT22;11167;46.988;15.470;2024-01-30T07:41:10;1.40;73.70
22006;DHT22;11167;46.988;15.470;2024-01-30T07:43:12;1.40;73.70
22006;DHT22;11167;46.988;15.470;2024-01-30T07:45:13;1.30;73.70
22006;DHT22;11167;46.988;15.470;2024-01-30T07:47:14;1.30;73.70
22006;DHT22;11167;46.988;15.470;2024-01-30T07:49:15;1.30;73.60
22006;DHT22;11167;46.988;15.470;2024-01-30T07:51:16;1.30;73.70
22006;DHT22;11167;46.988;15.470;2024-01-30T07:53:18;1.30;73.70
22006;DHT22;11167;46.988;15.470;2024-01-30T07:55:19;1.30;73.70
22006;DHT22;11167;46.988;15.470;2024-01-30T07:57:21;1.30;73.60
22006;DHT22;11167;46.988;15.470;2024-01-30T07:59:22;1.30;73.60
22006;DHT22;11167;46.988;15.470;2024-01-30T08:01:26;1.30;73.60
22006;DHT22;11167;46.988;15.470;2024-01-30T08:03:28;1.30;73.60
22006;DHT22;11167;46.988;15.470;2024-01-30T08:05:29;1.30;73.50
22006;DHT22;11167;46.988;15.470;2024-01-30T08:07:30;1.30;73.70
22006;DHT22;11167;46.988;15.470;2024-01-30T08:09:32;1.30;73.60
22006;DHT22;11167;46.988;15.470;2024-01-30T08:11:33;1.30;73.60
22006;DHT22;11167;46.988;15.470;2024-01-30T08:13:34;1.20;73.50
22006;DHT22;11167;46.988;15.470;2024-01-30T08:15:35;1.30;73.70
22006;DHT22;11167;46.988;15.470;2024-01-30T08:17:37;1.20;73.50
22006;DHT22;11167;46.988;15.470;2024-01-30T08:19:38;1.20;73.50
22006;DHT22;11167;46.988;15.470;2024-01-30T08:21:39;1.20;73.50
22006;DHT22;11167;46.988;15.470;2024-01-30T08:23:40;1.20;73.50
22006;DHT22;11167;46.988;15.470;2024-01-30T08:25:42;1.20;73.50
22006;DHT22;11167;46.988;15.470;2024-01-30T08:27:43;1.20;73.70
22006;DHT22;11167;46.988;15.470;2024-01-30T08:29:45;1.20;73.50
22006;DHT22;11167;46.988;15.470;2024-01-30T08:31:46;1.20;74.40
22006;DHT22;11167;46.988;15.470;2024-01-30T08:33:47;1.20;73.50
22006;DHT22;11167;46.988;15.470;2024-01-30T08:35:49;1.20;73.50
22006;DHT22;11167;46.988;15.470;2024-01-30T08:37:50;1.20;73.50
22006;DHT22;11167;46.988;15.470;2024-01-30T08:39:51;1.20;73.50
22006;DHT22;11167;46.988;15.470;2024-01-30T08:41:53;1.20;73.60
22006;DHT22;11167;46.988;15.470;2024-01-30T08:43:54;1.20;73.60
22006;DHT22;11167;46.988;15.470;2024-01-30T08:46:00;1.20;73.50
22006;DHT22;11167;46.988;15.470;2024-01-30T08:48:01;1.20;73.60
22006;DHT22;11167;46.988;15.470;2024-01-30T08:50:03;1.20;73.50
22006;DHT22;11167;46.988;15.470;2024-01-30T08:52:04;1.20;73.50
22006;DHT22;11167;46.988;15.470;2024-01-30T08:54:06;1.20;73.50
22006;DHT22;11167;46.988;15.470;2024-01-30T08:56:07;1.20;74.30
22006;DHT22;11167;46.988;15.470;2024-01-30T08:58:08;1.30;73.50
22006;DHT22;11167;46.988;15.470;2024-01-30T09:00:10;1.20;73.40
22006;DHT22;11167;46.988;15.470;2024-01-30T09:02:13;1.20;73.30
22006;DHT22;11167;46.988;15.470;2024-01-30T09:04:16;1.30;73.40
22006;DHT22;11167;46.988;15.470;2024-01-30T09:06:18;1.30;73.40
22006;DHT22;11167;46.988;15.470;2024-01-30T09:08:19;1.30;73.50
22006;DHT22;11167;46.988;15.470;2024-01-30T09:10:20;1.30;73.50
22006;DHT22;11167;46.988;15.470;2024-01-30T09:12:21;1.30;73.50
22006;DHT22;11167;46.988;15.470;2024-01-30T09:14:22;1.30;73.40
22006;DHT22;11167;46.988;15.470;2024-01-30T09:16:24;1.30;73.50
22006;DHT22;11167;46.988;15.470;2024-01-30T09:18:25;1.40;73.60
22006;DHT22;11167;46.988;15.470;2024-01-30T09:20:26;1.40;73.50
22006;DHT22;11167;46.988;15.470;2024-01-30T09:22:28;1.40;73.60
22006;DHT22;11167;46.988;15.470;2024-01-30T09:24:29;1.40;73.50
22006;DHT22;11167;46.988;15.470;2024-01-30T09:26:31;1.40;73.50
22006;DHT22;11167;46.988;15.470;2024-01-30T09:28:32;1.40;73.60
22006;DHT22;11167;46.988;15.470;2024-01-30T09:30:33;1.40;73.50
22006;DHT22;11167;46.988;15.470;2024-01-30T09:32:34;1.40;73.50
22006;DHT22;11167;46.988;15.470;2024-01-30T09:34:35;1.50;73.70
22006;DHT22;11167;46.988;15.470;2024-01-30T09:36:36;1.50;73.60
22006;DHT22;11167;46.988;15.470;2024-01-30T09:38:38;1.50;73.50
22006;DHT22;11167;46.988;15.470;2024-01-30T09:40:39;1.50;73.70
22006;DHT22;11167;46.988;15.470;2024-01-30T09:42:42;1.50;73.60
22006;DHT22;11167;46.988;15.470;2024-01-30T09:44:46;1.60;73.70
22006;DHT22;11167;46.988;15.470;2024-01-30T09:46:48;1.60;73.70
22006;DHT22;11167;46.988;15.470;2024-01-30T09:48:50;1.60;73.70
22006;DHT22;11167;46.988;15.470;2024-01-30T09:50:52;1.60;73.70
22006;DHT22;11167;46.988;15.470;2024-01-30T09:52:55;1.60;73.70
22006;DHT22;11167;46.988;15.470;2024-01-30T09:54:59;1.70;73.80
22006;DHT22;11167;46.988;15.470;2024-01-30T09:57:01;1.70;73.80
22006;DHT22;11167;46.988;15.470;2024-01-30T09:59:03;1.70;73.80
22006;DHT22;11167;46.988;15.470;2024-01-30T10:01:04;1.70;73.90
22006;DHT22;11167;46.988;15.470;2024-01-30T10:03:05;1.70;73.90
22006;DHT22;11167;46.988;15.470;2024-01-30T10:05:08;1.80;74.10
22006;DHT22;11167;46.988;15.470;2024-01-30T10:07:10;1.80;74.10
22006;DHT22;11167;46.988;15.470;2024-01-30T10:09:13;1.80;74.10
22006;DHT22;11167;46.988;15.470;2024-01-30T10:11:14;1.80;74.10
22006;DHT22;11167;46.988;15.470;2024-01-30T10:13:16;1.90;74.20
22006;DHT22;11167;46.988;15.470;2024-01-30T10:15:18;1.90;74.20
22006;DHT22;11167;46.988;15.470;2024-01-30T10:17:24;1.90;75.00
22006;DHT22;11167;46.988;15.470;2024-01-30T10:19:26;2.00;74.20
22006;DHT22;11167;46.988;15.470;2024-01-30T10:21:27;2.00;74.40
22006;DHT22;11167;46.988;15.470;2024-01-30T10:23:29;2.00;74.20
22006;DHT22;11167;46.988;15.470;2024-01-30T10:25:32;2.10;74.40
22006;DHT22;11167;46.988;15.470;2024-01-30T10:27:34;2.10;74.40
22006;DHT22;11167;46.988;15.470;2024-01-30T10:29:37;2.10;74.40
22006;DHT22;11167;46.988;15.470;2024-01-30T10:31:38;2.10;74.50
22006;DHT22;11167;46.988;15.470;2024-01-30T10:33:39;2.20;74.50
22006;DHT22;11167;46.988;15.470;2024-01-30T10:35:40;2.20;74.50
22006;DHT22;11167;46.988;15.470;2024-01-30T10:37:48;2.30;74.60
22006;DHT22;11167;46.988;15.470;2024-01-30T10:39:52;2.30;74.60
22006;DHT22;11167;46.988;15.470;2024-01-30T10:41:56;2.30;74.60
22006;DHT22;11167;46.988;15.470;2024-01-30T10:44:18;2.40;74.70
22006;DHT22;11167;46.988;15.470;2024-01-30T10:46:20;2.40;74.60
22006;DHT22;11167;46.988;15.470;2024-01-30T10:48:25;2.40;74.80
22006;DHT22;11167;46.988;15.470;2024-01-30T10:50:27;2.50;74.80
22006;DHT22;11167;46.988;15.470;2024-01-30T10:52:31;2.50;74.80
22006;DHT22;11167;46.988;15.470;2024-01-30T10:54:34;2.50;74.80
22006;DHT22;11167;46.988;15.470;2024-01-30T10:56:36;2.60;74.80
22006;DHT22;11167;46.988;15.470;2024-01-30T10:58:37;2.60;74.80
22006;DHT22;11167;46.988;15.470;2024-01-30T11:00:39;2.60;75.00
22006;DHT22;11167;46.988;15.470;2024-01-30T11:02:41;2.70;74.90
22006;DHT22;11167;46.988;15.470;2024-01-30T11:04:45;2.70;75.00
22006;DHT22;11167;46.988;15.470;2024-01-30T11:06:49;2.80;74.90
22006;DHT22;11167;46.988;15.470;2024-01-30T11:09:03;2.80;75.10
22006;DHT22;11167;46.988;15.470;2024-01-30T11:11:08;2.90;75.00
22006;DHT22;11167;46.988;15.470;2024-01-30T11:13:13;2.90;74.70
22006;DHT22;11167;46.988;15.470;2024-01-30T11:15:16;3.00;75.10
22006;DHT22;11167;46.988;15.470;2024-01-30T11:17:18;3.00;75.00
22006;DHT22;11167;46.988;15.470;2024-01-30T11:19:23;3.00;75.10
22006;DHT22;11167;46.988;15.470;2024-01-30T11:21:27;3.10;75.20
22006;DHT22;11167;46.988;15.470;2024-01-30T11:23:28;3.10;75.20
22006;DHT22;11167;46.988;15.470;2024-01-30T11:25:31;3.10;75.20
22006;DHT22;11167;46.988;15.470;2024-01-30T11:27:33;3.20;76.00
22006;DHT22;11167;46.988;15.470;2024-01-30T11:29:35;3.20;75.20
22006;DHT22;11167;46.988;15.470;2024-01-30T11:31:36;3.30;75.30
22006;DHT22;11167;46.988;15.470;2024-01-30T11:33:38;3.30;75.30
22006;DHT22;11167;46.988;15.470;2024-01-30T11:35:40;3.40;75.40
22006;DHT22;11167;46.988;15.470;2024-01-30T11:37:43;3.40;76.20
22006;DHT22;11167;46.988;15.470;2024-01-30T11:39:46;3.50;75.30
22006;DHT22;11167;46.988;15.470;2024-01-30T11:41:50;3.50;75.50
22006;DHT22;11167;46.988;15.470;2024-01-30T11:43:53;3.50;75.40
22006;DHT22;11167;46.988;15.470;2024-01-30T11:45:54;3.60;75.40
22006;DHT22;11167;46.988;15.470;2024-01-30T11:47:56;3.60;75.40
22006;DHT22;11167;46.988;15.470;2024-01-30T11:49:57;3.70;75.40
22006;DHT22;11167;46.988;15.470;2024-01-30T11:51:59;3.70;74.80
22006;DHT22;11167;46.988;15.470;2024-01-30T11:54:00;3.80;75.50
22006;DHT22;11167;46.988;15.470;2024-01-30T11:56:01;3.80;75.60
22006;DHT22;11167;46.988;15.470;2024-01-30T11:58:02;3.90;75.60
22006;DHT22;11167;46.988;15.470;2024-01-30T12:00:05;3.90;75.70
22006;DHT22;11167;46.988;15.470;2024-01-30T12:02:16;4.00;75.70
22006;DHT22;11167;46.988;15.470;2024-01-30T12:04:18;4.00;75.70
22006;DHT22;11167;46.988;15.470;2024-01-30T12:06:19;4.10;75.80
22006;DHT22;11167;46.988;15.470;2024-01-30T12:08:23;4.20;75.80
22006;DHT22;11167;46.988;15.470;2024-01-30T12:10:26;4.20;75.80
22006;DHT22;11167;46.988;15.470;2024-01-30T12:12:28;4.20;75.80
22006;DHT22;11167;46.988;15.470;2024-01-30T12:14:31;4.30;75.90
22006;DHT22;11167;46.988;15.470;2024-01-30T12:16:33;4.30;76.00
22006;DHT22;11167;46.988;15.470;2024-01-30T12:18:34;4.40;75.90
22006;DHT22;11167;46.988;15.470;2024-01-30T12:20:35;4.40;76.00
22006;DHT22;11167;46.988;15.470;2024-01-30T12:22:46;4.50;76.10
22006;DHT22;11167;46.988;15.470;2024-01-30T12:24:43;4.50;76.00
22006;DHT22;11167;46.988;15.470;2024-01-30T12:26:47;4.60;76.10
22006;DHT22;11167;46.988;15.470;2024-01-30T12:28:53;4.60;76.10
22006;DHT22;11167;46.988;15.470;2024-01-30T12:30:56;4.70;76.10
22006;DHT22;11167;46.988;15.470;2024-01-30T12:32:58;4.70;76.10
22006;DHT22;11167;46.988;15.470;2024-01-30T12:34:59;4.80;76.10
22006;DHT22;11167;46.988;15.470;2024-01-30T12:37:00;4.80;76.20
22006;DHT22;11167;46.988;15.470;2024-01-30T12:39:02;4.90;76.30
22006;DHT22;11167;46.988;15.470;2024-01-30T12:41:03;4.90;76.20
22006;DHT22;11167;46.988;15.470;2024-01-30T12:43:05;5.00;76.30
22006;DHT22;11167;46.988;15.470;2024-01-30T12:45:07;5.00;76.30
22006;DHT22;11167;46.988;15.470;2024-01-30T12:47:09;5.10;76.40
22006;DHT22;11167;46.988;15.470;2024-01-30T12:49:10;5.10;76.60